createdAt,value
2022-11-05T00:01:01.427Z,1.40
2022-11-05T00:03:47.800Z,1.67
2022-11-05T00:06:34.099Z,1.80
2022-11-05T00:09:20.687Z,2.00
2022-11-05T00:12:07.273Z,1.93
2022-11-05T00:14:58.396Z,1.50
2022-11-05T00:17:26.159Z,1.57
2022-11-05T00:19:54.029Z,2.33
2022-11-05T00:22:40.563Z,1.23
2022-11-05T00:25:20.901Z,2.90
2022-11-05T00:27:53.951Z,2.30
2022-11-05T00:30:26.194Z,1.60
2022-11-05T00:32:54.223Z,1.50
2022-11-05T00:35:23.189Z,1.63
2022-11-05T00:37:51.091Z,2.50
2022-11-05T00:40:18.973Z,1.97
2022-11-05T00:43:05.449Z,2.10
2022-11-05T00:45:33.363Z,1.73
2022-11-05T00:48:19.922Z,1.70
2022-11-05T00:50:47.885Z,1.87
2022-11-05T00:53:15.877Z,1.90
2022-11-05T00:55:45.961Z,2.30
2022-11-05T00:58:18.631Z,1.90
2022-11-05T01:00:52.823Z,4.37
2022-11-05T01:03:22.177Z,1.80
2022-11-05T01:05:51.918Z,2.03
2022-11-05T01:08:20.966Z,2.67
2022-11-05T01:10:53.098Z,2.10
2022-11-05T01:13:22.443Z,1.87
2022-11-05T01:15:52.073Z,1.83
2022-11-05T01:18:20.169Z,1.90
2022-11-05T01:20:48.132Z,3.43
2022-11-05T01:23:16.170Z,2.70
2022-11-05T01:25:44.877Z,2.00
2022-11-05T01:28:12.807Z,3.40
2022-11-05T01:30:40.723Z,2.00
2022-11-05T01:33:08.796Z,5.57
2022-11-05T01:35:36.782Z,2.00
2022-11-05T01:38:04.608Z,2.13
2022-11-05T01:40:32.523Z,2.17
2022-11-05T01:43:00.328Z,2.50
2022-11-05T01:45:28.895Z,2.10
2022-11-05T01:48:05.830Z,1.77
2022-11-05T01:50:52.961Z,1.97
2022-11-05T01:53:32.064Z,1.87
2022-11-05T01:56:24.273Z,1.50
2022-11-05T01:58:52.969Z,1.40
2022-11-05T02:01:20.904Z,2.13
2022-11-05T02:03:49.706Z,2.60
2022-11-05T02:06:17.874Z,1.30
2022-11-05T02:09:04.516Z,2.17
2022-11-05T02:11:32.427Z,1.53
2022-11-05T02:14:00.550Z,1.90
2022-11-05T02:16:31.187Z,1.30
2022-11-05T02:19:23.301Z,2.10
2022-11-05T02:21:53.728Z,1.90
2022-11-05T02:24:36.435Z,2.37
2022-11-05T02:27:11.454Z,1.73
2022-11-05T02:30:04.650Z,1.87
2022-11-05T02:32:44.281Z,1.53
2022-11-05T02:35:24.027Z,3.07
2022-11-05T02:37:57.524Z,1.83
2022-11-05T02:40:43.857Z,3.87
2022-11-05T02:43:34.975Z,2.13
2022-11-05T02:46:12.948Z,1.83
2022-11-05T02:48:46.759Z,1.37
2022-11-05T02:51:54.275Z,1.50
2022-11-05T02:54:24.684Z,1.37
2022-11-05T02:56:53.274Z,1.50
2022-11-05T02:59:21.161Z,1.73
2022-11-05T03:01:49.104Z,2.20
2022-11-05T03:04:18.393Z,2.70
2022-11-05T03:06:55.277Z,3.60
2022-11-05T03:09:27.780Z,2.70
2022-11-05T03:12:15.740Z,1.73
2022-11-05T03:15:17.695Z,1.87
2022-11-05T03:17:45.943Z,1.60
2022-11-05T03:20:27.255Z,1.60
2022-11-05T03:23:13.885Z,1.67
2022-11-05T03:25:50.636Z,3.30
2022-11-05T03:28:18.727Z,1.70
2022-11-05T03:30:46.543Z,1.50
2022-11-05T03:33:18.314Z,1.50
2022-11-05T03:35:50.970Z,2.57
2022-11-05T03:38:23.058Z,1.77
2022-11-05T03:40:53.982Z,1.43
2022-11-05T03:43:22.233Z,2.13
2022-11-05T03:45:59.758Z,4.47
2022-11-05T03:48:28.810Z,1.27
2022-11-05T03:51:05.986Z,1.33
2022-11-05T03:53:39.343Z,1.47
2022-11-05T03:56:28.608Z,0.90
2022-11-05T03:58:59.139Z,1.20
2022-11-05T04:01:27.317Z,1.30
2022-11-05T04:03:55.203Z,1.53
2022-11-05T04:06:41.738Z,1.93
2022-11-05T04:09:29.101Z,1.10
2022-11-05T04:12:15.454Z,1.90
2022-11-05T04:14:43.314Z,1.27
2022-11-05T04:17:13.906Z,1.10
2022-11-05T04:20:01.793Z,1.93
2022-11-05T04:22:50.133Z,0.87
2022-11-05T04:25:18.490Z,1.40
2022-11-05T04:27:46.681Z,1.10
2022-11-05T04:30:20.910Z,0.87
2022-11-05T04:33:15.814Z,0.90
2022-11-05T04:36:01.496Z,1.10
2022-11-05T04:38:29.288Z,1.20
2022-11-05T04:41:00.428Z,0.93
2022-11-05T04:43:28.246Z,1.27
2022-11-05T04:45:56.112Z,1.53
2022-11-05T04:48:23.862Z,2.10
2022-11-05T04:50:51.639Z,1.67
2022-11-05T04:53:19.442Z,1.70
2022-11-05T04:55:47.246Z,1.30
2022-11-05T04:58:15.114Z,1.17
2022-11-05T05:00:42.982Z,1.77
2022-11-05T05:03:11.112Z,1.67
2022-11-05T05:05:39.185Z,1.40
2022-11-05T05:08:07.051Z,1.10
2022-11-05T05:10:34.834Z,1.43
2022-11-05T05:13:02.744Z,1.30
2022-11-05T05:15:30.613Z,1.47
2022-11-05T05:17:58.438Z,2.70
2022-11-05T05:20:58.482Z,1.40
2022-11-05T05:23:26.354Z,1.20
2022-11-05T05:25:54.176Z,1.17
2022-11-05T05:28:22.009Z,1.30
2022-11-05T05:30:52.568Z,1.20
2022-11-05T05:33:22.585Z,1.10
2022-11-05T05:35:50.539Z,1.37
2022-11-05T05:38:18.442Z,1.23
2022-11-05T05:40:46.192Z,1.30
2022-11-05T05:43:14.146Z,1.67
2022-11-05T05:45:41.954Z,2.13
2022-11-05T05:48:09.822Z,2.80
2022-11-05T05:50:37.973Z,1.53
2022-11-05T05:53:05.819Z,1.93
2022-11-05T05:55:33.715Z,1.53
2022-11-05T05:58:01.568Z,1.60
2022-11-05T06:00:29.409Z,1.67
2022-11-05T06:02:57.781Z,3.03
2022-11-05T06:05:25.579Z,3.43
2022-11-05T06:07:57.509Z,1.60
2022-11-05T06:10:25.899Z,1.33
2022-11-05T06:12:53.838Z,1.20
2022-11-05T06:15:21.704Z,1.27
2022-11-05T06:17:49.463Z,1.37
2022-11-05T06:20:17.523Z,1.30
2022-11-05T06:22:46.183Z,1.33
2022-11-05T06:25:13.954Z,1.20
2022-11-05T06:27:41.772Z,2.37
2022-11-05T06:30:10.426Z,2.93
2022-11-05T06:32:38.186Z,1.33
2022-11-05T06:35:06.464Z,1.50
2022-11-05T06:37:35.043Z,1.63
2022-11-05T06:40:03.074Z,1.17
2022-11-05T06:42:30.934Z,1.27
2022-11-05T06:44:58.810Z,1.30
2022-11-05T06:47:26.660Z,1.10
2022-11-05T06:49:54.588Z,1.60
2022-11-05T06:52:22.579Z,1.17
2022-11-05T06:54:50.563Z,2.20
2022-11-05T06:57:18.375Z,2.80
2022-11-05T06:59:46.307Z,1.13
2022-11-05T07:02:14.927Z,1.20
2022-11-05T07:04:42.920Z,1.00
2022-11-05T07:07:10.993Z,1.40
2022-11-05T07:09:44.158Z,1.30
2022-11-05T07:12:12.129Z,2.57
2022-11-05T07:14:39.929Z,1.23
2022-11-05T07:17:07.762Z,1.40
2022-11-05T07:19:36.099Z,1.90
2022-11-05T07:22:04.037Z,3.97
2022-11-05T07:24:31.879Z,1.13
2022-11-05T07:26:59.778Z,1.17
2022-11-05T07:29:32.362Z,1.10
2022-11-05T07:32:00.184Z,1.73
2022-11-05T07:34:32.703Z,1.03
2022-11-05T07:37:00.550Z,1.13
2022-11-05T07:39:28.380Z,1.33
2022-11-05T07:41:56.582Z,1.67
2022-11-05T07:44:24.546Z,0.90
2022-11-05T07:46:52.424Z,1.07
2022-11-05T07:49:20.203Z,1.00
2022-11-05T07:51:48.092Z,1.27
2022-11-05T07:54:15.948Z,2.90
2022-11-05T07:56:43.877Z,1.07
2022-11-05T07:59:11.791Z,6.93
2022-11-05T08:01:39.664Z,1.30
2022-11-05T08:04:07.765Z,1.83
2022-11-05T08:06:35.798Z,1.33
2022-11-05T08:09:03.826Z,1.20
2022-11-05T08:11:31.663Z,1.47
2022-11-05T08:13:59.514Z,1.20
2022-11-05T08:16:27.428Z,1.10
2022-11-05T08:18:55.326Z,1.57
2022-11-05T08:21:28.499Z,1.80
2022-11-05T08:23:56.475Z,1.83
2022-11-05T08:26:24.249Z,1.30
2022-11-05T08:28:52.073Z,2.30
2022-11-05T08:31:19.903Z,1.17
2022-11-05T08:33:47.840Z,1.20
2022-11-05T08:36:15.603Z,1.80
2022-11-05T08:38:43.337Z,1.63
2022-11-05T08:41:11.349Z,1.60
2022-11-05T08:43:39.191Z,1.63
2022-11-05T08:46:07.253Z,1.57
2022-11-05T08:48:35.156Z,1.97
2022-11-05T08:51:03.117Z,1.20
2022-11-05T08:53:31.047Z,1.33
2022-11-05T08:55:59.975Z,0.87
2022-11-05T08:58:27.753Z,2.90
2022-11-05T09:00:59.022Z,3.07
2022-11-05T09:03:30.208Z,1.70
2022-11-05T09:05:58.033Z,1.37
2022-11-05T09:08:25.769Z,1.40
2022-11-05T09:10:53.643Z,1.30
2022-11-05T09:13:21.859Z,1.53
2022-11-05T09:15:50.535Z,2.10
2022-11-05T09:18:19.092Z,1.50
2022-11-05T09:20:47.361Z,2.60
2022-11-05T09:23:16.418Z,4.00
2022-11-05T09:25:45.001Z,1.83
2022-11-05T09:28:21.332Z,1.90
2022-11-05T09:30:51.149Z,2.53
2022-11-05T09:33:20.777Z,2.13
2022-11-05T09:35:48.775Z,2.27
2022-11-05T09:38:16.630Z,1.37
2022-11-05T09:40:57.408Z,1.23
2022-11-05T09:43:31.702Z,2.67
2022-11-05T09:46:00.836Z,1.70
2022-11-05T09:48:30.648Z,1.50
2022-11-05T09:50:59.482Z,1.60
2022-11-05T09:53:27.374Z,1.30
2022-11-05T09:56:00.498Z,3.10
2022-11-05T09:58:38.759Z,1.80
2022-11-05T10:01:09.099Z,1.63
2022-11-05T10:03:37.585Z,2.23
2022-11-05T10:06:09.559Z,1.20
2022-11-05T10:08:41.600Z,1.47
2022-11-05T10:11:20.949Z,1.00
2022-11-05T10:13:53.831Z,1.57
2022-11-05T10:16:27.752Z,1.77
2022-11-05T10:19:02.963Z,1.63
2022-11-05T10:21:51.838Z,1.70
2022-11-05T10:24:20.456Z,1.23
2022-11-05T10:26:51.125Z,1.23
2022-11-05T10:29:37.441Z,1.27
2022-11-05T10:32:07.131Z,2.13
2022-11-05T10:34:36.106Z,1.10
2022-11-05T10:37:04.390Z,1.27
2022-11-05T10:39:32.565Z,2.57
2022-11-05T10:42:19.432Z,2.70
2022-11-05T10:58:30.925Z,1.90
2022-11-05T11:00:58.746Z,1.70
2022-11-05T11:03:49.427Z,1.17
2022-11-05T11:06:27.863Z,0.93
2022-11-05T11:08:57.704Z,1.50
2022-11-05T11:11:30.130Z,1.43
2022-11-05T11:13:57.878Z,1.40
2022-11-05T11:16:27.587Z,1.10
2022-11-05T11:19:02.057Z,2.03
2022-11-05T11:21:30.867Z,5.43
2022-11-05T11:24:07.989Z,1.93
2022-11-05T11:26:44.665Z,1.40
2022-11-05T11:29:26.635Z,1.60
2022-11-05T11:31:56.224Z,1.00
2022-11-05T11:34:36.386Z,3.77
2022-11-05T11:37:20.970Z,1.43
2022-11-05T11:39:54.096Z,1.20
2022-11-05T11:42:36.862Z,1.73
2022-11-05T11:45:23.369Z,1.43
2022-11-05T11:47:53.982Z,1.20
2022-11-05T11:50:40.187Z,2.00
2022-11-05T11:53:23.318Z,0.70
2022-11-05T11:56:13.505Z,1.10
2022-11-05T11:58:54.806Z,2.07
2022-11-05T12:01:33.604Z,1.13
2022-11-05T12:04:14.344Z,1.30
2022-11-05T12:07:06.974Z,1.30
2022-11-05T12:09:39.985Z,2.43
2022-11-05T12:12:15.573Z,1.37
2022-11-05T12:14:55.699Z,0.93
2022-11-05T12:17:46.931Z,1.43
2022-11-05T12:20:31.358Z,1.20
2022-11-05T12:23:15.400Z,2.83
2022-11-05T12:25:48.622Z,1.30
2022-11-05T12:28:25.549Z,1.47
2022-11-05T12:31:06.803Z,1.43
2022-11-05T12:33:59.934Z,1.40
2022-11-05T12:36:47.372Z,1.70
2022-11-05T12:39:52.623Z,1.10
2022-11-05T12:42:35.854Z,0.97
2022-11-05T12:45:09.213Z,2.40
2022-11-05T12:47:46.086Z,1.83
2022-11-05T12:50:38.155Z,1.47
2022-11-05T12:53:34.135Z,1.43
2022-11-05T12:56:05.989Z,1.73
2022-11-05T12:58:35.217Z,1.70
2022-11-05T13:01:06.322Z,0.97
2022-11-05T13:03:50.506Z,1.77
2022-11-05T13:06:20.928Z,2.73
2022-11-05T13:09:02.714Z,1.47
2022-11-05T13:11:36.597Z,1.27
2022-11-05T13:14:15.299Z,2.97
2022-11-05T13:16:47.463Z,1.60
2022-11-05T13:19:27.839Z,2.30
2022-11-05T13:22:10.695Z,2.23
2022-11-05T13:25:09.285Z,1.53
2022-11-05T13:27:51.710Z,1.23
2022-11-05T13:30:27.155Z,3.00
2022-11-05T13:33:00.162Z,2.67
2022-11-05T13:35:35.132Z,2.53
2022-11-05T13:38:26.618Z,3.90
2022-11-05T13:41:39.780Z,4.07
2022-11-05T13:44:29.145Z,3.93
2022-11-05T13:47:29.526Z,1.90
2022-11-05T13:50:29.439Z,1.90
2022-11-05T13:52:59.949Z,1.97
2022-11-05T13:55:33.777Z,2.87
2022-11-05T13:58:44.648Z,2.17
2022-11-05T14:01:42.146Z,1.57
2022-11-05T14:04:22.527Z,1.20
2022-11-05T14:06:50.492Z,1.63
2022-11-05T14:09:21.304Z,3.00
2022-11-05T14:11:51.511Z,2.47
2022-11-05T14:14:24.073Z,2.60
2022-11-05T14:16:52.746Z,1.60
2022-11-05T14:19:21.242Z,1.40
2022-11-05T14:21:59.153Z,1.30
2022-11-05T14:24:29.101Z,2.07
2022-11-05T14:27:10.780Z,1.47
2022-11-05T14:29:43.357Z,1.63
2022-11-05T14:32:24.926Z,2.57
2022-11-05T14:35:17.392Z,1.77
2022-11-05T14:37:57.550Z,1.43
2022-11-05T14:40:40.077Z,1.40
2022-11-05T14:43:23.858Z,1.77
2022-11-05T14:46:01.790Z,1.20
2022-11-05T14:48:29.606Z,1.73
2022-11-05T14:50:57.525Z,1.97
2022-11-05T14:53:38.600Z,1.90
2022-11-05T14:56:12.937Z,3.57
2022-11-05T14:58:44.639Z,1.30
2022-11-05T15:01:15.391Z,2.10
2022-11-05T15:03:46.679Z,1.40
2022-11-05T15:06:37.010Z,1.97
2022-11-05T15:09:04.796Z,2.03
2022-11-05T15:12:03.765Z,2.17
2022-11-05T15:14:39.842Z,1.90
2022-11-05T15:17:33.242Z,2.47
2022-11-05T15:20:22.803Z,1.87
2022-11-05T15:22:53.043Z,2.20
2022-11-05T15:25:24.698Z,1.70
2022-11-05T15:27:57.830Z,1.80
2022-11-05T15:30:25.721Z,2.50
2022-11-05T15:32:53.887Z,2.00
2022-11-05T15:35:28.022Z,1.50
2022-11-05T15:38:01.649Z,2.07
2022-11-05T15:40:31.595Z,2.20
2022-11-05T15:43:10.736Z,2.57
2022-11-05T15:45:38.993Z,3.10
2022-11-05T15:48:16.826Z,6.33
2022-11-05T15:50:44.695Z,4.20
2022-11-05T15:53:44.092Z,4.97
2022-11-05T15:56:11.579Z,3.10
2022-11-05T15:58:43.946Z,2.77
2022-11-05T16:01:30.726Z,2.90
2022-11-05T16:04:12.098Z,3.13
2022-11-05T16:06:40.849Z,2.27
2022-11-05T16:09:08.725Z,2.10
2022-11-05T16:11:36.515Z,2.33
2022-11-05T16:14:15.316Z,2.63
2022-11-05T16:16:45.359Z,3.23
2022-11-05T16:19:40.161Z,3.97
2022-11-05T16:22:08.583Z,4.43
2022-11-05T16:24:36.335Z,3.87
2022-11-05T16:27:06.890Z,3.73
2022-11-05T16:29:40.163Z,2.43
2022-11-05T16:32:16.073Z,3.70
2022-11-05T16:34:51.421Z,2.93
2022-11-05T16:37:20.705Z,3.17
2022-11-05T16:39:48.712Z,4.00
2022-11-05T16:42:25.626Z,3.37
2022-11-05T16:44:56.149Z,2.77
2022-11-05T16:47:24.020Z,3.00
2022-11-05T16:49:51.960Z,6.63
2022-11-05T16:52:19.768Z,7.40
2022-11-05T16:54:47.601Z,6.10
2022-11-05T16:57:28.529Z,3.60
2022-11-05T16:59:56.652Z,6.43
2022-11-05T17:02:24.542Z,4.53
2022-11-05T17:04:52.458Z,4.63
2022-11-05T17:07:20.237Z,4.23
2022-11-05T17:09:48.042Z,3.67
2022-11-05T17:12:16.154Z,3.47
2022-11-05T17:14:44.352Z,3.63
2022-11-05T17:17:12.418Z,2.60
2022-11-05T17:19:43.428Z,4.53
2022-11-05T17:22:16.417Z,3.50
2022-11-05T17:24:44.284Z,2.53
2022-11-05T17:27:12.255Z,3.10
2022-11-05T17:29:40.117Z,2.07
2022-11-05T17:32:08.200Z,2.80
2022-11-05T17:34:36.166Z,3.57
2022-11-05T17:37:03.966Z,4.30
2022-11-05T17:39:32.188Z,3.40
2022-11-05T17:42:00.083Z,2.27
2022-11-05T17:44:27.937Z,2.00
2022-11-05T17:46:55.820Z,1.63
2022-11-05T17:49:23.686Z,3.57
2022-11-05T17:51:51.469Z,2.93
2022-11-05T17:54:19.423Z,2.00
2022-11-05T17:56:47.372Z,2.70
2022-11-05T17:59:15.412Z,4.37
2022-11-05T18:01:45.003Z,5.70
2022-11-05T18:04:13.454Z,2.40
2022-11-05T18:06:45.323Z,2.57
2022-11-05T18:09:13.466Z,2.43
2022-11-05T18:11:41.701Z,5.47
2022-11-05T18:14:09.786Z,4.70
2022-11-05T18:16:38.021Z,5.87
2022-11-05T18:19:06.151Z,6.37
2022-11-05T18:21:36.299Z,4.23
2022-11-05T18:24:11.349Z,6.90
2022-11-05T18:26:39.217Z,5.87
2022-11-05T18:29:07.220Z,4.70
2022-11-05T18:31:35.083Z,4.93
2022-11-05T18:34:02.928Z,5.03
2022-11-05T18:36:31.784Z,5.33
2022-11-05T18:39:00.430Z,6.03
2022-11-05T18:41:28.296Z,6.73
2022-11-05T18:44:00.733Z,4.80
2022-11-05T18:46:56.688Z,5.73
2022-11-05T18:49:17.574Z,4.00
2022-11-05T18:51:45.464Z,4.63
2022-11-05T18:54:13.268Z,4.97
2022-11-05T18:56:46.396Z,4.97
2022-11-05T18:59:35.767Z,12.07
2022-11-05T19:02:02.827Z,11.63
2022-11-05T19:04:31.801Z,4.90
2022-11-05T19:07:04.515Z,5.43
2022-11-05T19:09:32.967Z,4.27
2022-11-05T19:12:00.815Z,3.73
2022-11-05T19:14:28.849Z,3.23
2022-11-05T19:16:57.408Z,2.53
2022-11-05T19:19:25.232Z,3.37
2022-11-05T19:22:05.635Z,2.37
2022-11-05T19:24:38.616Z,5.53
2022-11-05T19:27:09.459Z,2.30
2022-11-05T19:29:38.553Z,3.37
2022-11-05T19:32:06.852Z,3.10
2022-11-05T19:34:35.311Z,2.93
2022-11-05T19:37:11.329Z,3.63
2022-11-05T19:39:42.670Z,3.97
2022-11-05T19:42:15.407Z,3.20
2022-11-05T19:44:44.371Z,2.60
2022-11-05T19:47:12.774Z,2.73
2022-11-05T19:49:48.536Z,3.03
2022-11-05T19:52:21.344Z,3.23
2022-11-05T19:55:12.580Z,4.27
2022-11-05T19:57:46.344Z,4.10
2022-11-05T20:00:17.200Z,3.93
2022-11-05T20:02:48.860Z,4.10
2022-11-05T20:05:19.449Z,4.10
2022-11-05T20:07:52.494Z,6.97
2022-11-05T20:10:23.945Z,5.40
2022-11-05T20:12:56.491Z,5.17
2022-11-05T20:15:25.586Z,6.33
2022-11-05T20:17:58.149Z,6.67
2022-11-05T20:20:26.220Z,5.27
2022-11-05T20:22:58.734Z,6.03
2022-11-05T20:25:26.850Z,6.27
2022-11-05T20:27:59.732Z,7.43
2022-11-05T20:30:41.853Z,6.43
2022-11-05T20:33:15.624Z,7.43
2022-11-05T20:35:50.772Z,6.10
2022-11-05T20:38:18.825Z,6.37
2022-11-05T20:40:46.976Z,7.53
2022-11-05T20:43:14.862Z,5.00
2022-11-05T20:45:47.397Z,6.97
2022-11-05T20:48:15.473Z,6.33
2022-11-05T20:50:48.850Z,7.77
2022-11-05T20:53:21.743Z,7.70
2022-11-05T20:55:52.541Z,8.50
2022-11-05T20:58:20.506Z,8.97
2022-11-05T21:00:50.693Z,8.67
2022-11-05T21:03:19.249Z,6.10
2022-11-05T21:05:48.635Z,7.80
2022-11-05T21:08:16.564Z,6.87
2022-11-05T21:10:51.264Z,6.87
2022-11-05T21:13:19.627Z,5.63
2022-11-05T21:15:51.652Z,4.93
2022-11-05T21:18:24.170Z,5.13
2022-11-05T21:20:52.463Z,6.47
2022-11-05T21:23:20.736Z,7.57
2022-11-05T21:25:53.716Z,7.17
2022-11-05T21:28:21.830Z,5.50
2022-11-05T21:30:50.326Z,5.70
2022-11-05T21:33:19.241Z,6.27
2022-11-05T21:35:48.725Z,5.40
2022-11-05T21:38:19.431Z,6.17
2022-11-05T21:40:47.502Z,6.37
2022-11-05T21:43:18.581Z,7.13
2022-11-05T21:45:51.324Z,5.93
2022-11-05T21:48:24.036Z,8.13
2022-11-05T21:51:13.923Z,6.60
2022-11-05T21:54:00.339Z,7.37
2022-11-05T21:56:46.834Z,7.00
2022-11-05T21:59:44.699Z,8.53
2022-11-05T22:02:14.001Z,7.80
2022-11-05T22:04:50.378Z,9.23
2022-11-05T22:07:22.410Z,6.67
2022-11-05T22:09:50.363Z,7.13
2022-11-05T22:12:18.320Z,5.87
2022-11-05T22:14:51.423Z,4.90
2022-11-05T22:17:22.284Z,5.73
2022-11-05T22:19:53.026Z,6.70
2022-11-05T22:22:21.008Z,5.40
2022-11-05T22:24:53.842Z,6.23
2022-11-05T22:27:24.814Z,7.50
2022-11-05T22:29:52.953Z,6.47
2022-11-05T22:32:20.933Z,6.53
2022-11-05T22:34:53.852Z,7.07
2022-11-05T22:37:31.770Z,6.33
2022-11-05T22:39:59.789Z,7.53
2022-11-05T22:42:35.399Z,7.50
2022-11-05T22:45:03.588Z,6.60
2022-11-05T22:47:31.540Z,6.23
2022-11-05T22:49:59.847Z,5.30
2022-11-05T22:52:27.922Z,6.50
2022-11-05T22:54:56.088Z,5.27
2022-11-05T22:57:24.103Z,5.90
2022-11-05T22:59:52.116Z,6.93
2022-11-05T23:02:25.182Z,6.03
2022-11-05T23:04:55.995Z,7.90
2022-11-05T23:07:50.272Z,6.73
2022-11-05T23:10:36.568Z,6.00
2022-11-05T23:13:09.566Z,6.60
2022-11-05T23:15:56.274Z,7.00
2022-11-05T23:18:47.843Z,6.37
2022-11-05T23:21:37.564Z,5.50
2022-11-05T23:24:06.066Z,6.03
2022-11-05T23:26:52.979Z,7.07
2022-11-05T23:29:26.451Z,8.67
2022-11-05T23:32:12.769Z,9.10
2022-11-05T23:34:42.982Z,6.70
2022-11-05T23:37:49.301Z,6.93
2022-11-05T23:40:25.592Z,7.60
2022-11-05T23:43:20.931Z,9.63
2022-11-05T23:46:08.709Z,12.63
2022-11-05T23:48:41.465Z,11.77
2022-11-05T23:51:11.032Z,10.63
2022-11-05T23:53:44.848Z,10.77
2022-11-05T23:56:15.035Z,9.83
2022-11-05T23:58:43.328Z,10.57
